Time;durP1;ratioP1;P1;durP2;ratioP2;P2;SDS_P1;SDS_P2;PMS_P1;PMS_P2;Temp;Humidity;BMP_temperature;BMP_pressure;BME280_temperature;BME280_humidity;BME280_pressure;Samples;Min_cycle;Max_cycle;Signal;HPM_P1;HPM_P2
2022/07/14 00:00:53;;;;;;;3.10;2.45;;;;;;;18.59;79.66;100248.75;5070467;28;20040;-80
2022/07/14 00:03:18;;;;;;;2.90;2.40;;;;;;;18.59;79.05;100254.34;5073921;28;20067;-81
2022/07/14 00:05:44;;;;;;;4.18;2.60;;;;;;;18.50;78.93;100240.38;5041560;28;20107;-80
2022/07/14 00:08:09;;;;;;;7.20;3.10;;;;;;;18.35;82.08;100238.84;5031389;28;20045;-80
2022/07/14 00:10:35;;;;;;;4.60;2.60;;;;;;;18.34;81.98;100231.69;5069808;28;20029;-81
2022/07/14 00:13:00;;;;;;;3.33;2.70;;;;;;;18.31;84.15;100239.06;5069871;28;20040;-80
2022/07/14 00:15:26;;;;;;;4.18;2.58;;;;;;;18.21;84.98;100234.00;5071284;28;20420;-82
2022/07/14 00:17:52;;;;;;;3.10;2.38;;;;;;;18.00;88.09;100236.72;5054998;28;20456;-80
2022/07/14 00:20:18;;;;;;;2.60;2.40;;;;;;;18.06;87.77;100240.41;5055508;28;20044;-80
2022/07/14 00:22:44;;;;;;;4.03;2.63;;;;;;;18.15;86.83;100231.91;5038576;28;20102;-80
2022/07/14 00:25:10;;;;;;;3.50;2.67;;;;;;;18.12;87.17;100237.69;5069865;28;20044;-80
2022/07/14 00:27:36;;;;;;;4.70;2.83;;;;;;;18.22;85.65;100233.53;5068226;28;20048;-80
2022/07/14 00:30:04;;;;;;;3.95;2.78;;;;;;;18.33;83.53;100247.75;5055006;28;20067;-80
2022/07/14 00:32:29;;;;;;;8.18;3.05;;;;;;;18.28;82.92;100245.63;5054401;28;20070;-79
2022/07/14 00:34:57;;;;;;;3.33;2.65;;;;;;;18.26;83.38;100242.53;5054820;28;20049;-80
2022/07/14 00:37:22;;;;;;;4.70;2.63;;;;;;;18.16;85.09;100253.09;5053799;28;20045;-79
2022/07/14 00:39:54;;;;;;;3.42;2.65;;;;;;;18.10;86.08;100243.03;5069731;28;20049;-79
2022/07/14 00:42:37;;;;;;;2.83;2.40;;;;;;;18.02;87.66;100239.84;5072021;28;20071;-80
2022/07/14 00:45:05;;;;;;;3.73;2.50;;;;;;;17.92;87.81;100237.59;5052778;28;20494;-80
2022/07/14 00:47:31;;;;;;;4.45;2.63;;;;;;;17.93;87.94;100239.91;5038164;28;20299;-80
2022/07/14 00:49:57;;;;;;;5.65;2.60;;;;;;;17.96;87.09;100240.97;5038506;28;20059;-80
2022/07/14 00:52:24;;;;;;;5.10;2.63;;;;;;;17.93;87.18;100247.56;5049858;28;20106;-80
2022/07/14 00:54:49;;;;;;;3.58;2.70;;;;;;;17.73;89.43;100239.03;5066972;28;20418;-80
2022/07/14 00:57:15;;;;;;;4.38;2.75;;;;;;;17.77;87.79;100240.38;5054287;28;20040;-81
2022/07/14 00:59:41;;;;;;;3.67;2.63;;;;;;;17.68;88.53;100232.81;5070390;28;20040;-82
2022/07/14 01:02:07;;;;;;;3.40;2.70;;;;;;;17.59;90.73;100240.56;5286203;22;20080;-80
2022/07/14 01:04:32;;;;;;;5.00;2.95;;;;;;;17.48;90.58;100234.69;5068784;28;20044;-80
2022/07/14 01:06:58;;;;;;;4.00;2.70;;;;;;;17.53;90.02;100228.41;5072827;28;20494;-80
2022/07/14 01:09:23;;;;;;;2.90;2.53;;;;;;;17.58;89.87;100228.56;5071734;28;20040;-80
2022/07/14 01:11:49;;;;;;;2.72;2.50;;;;;;;17.61;88.22;100232.44;5095164;28;20035;-81
2022/07/14 01:14:15;;;;;;;3.83;2.63;;;;;;;17.55;88.42;100235.06;5073712;28;20167;-80
2022/07/14 01:16:40;;;;;;;3.50;2.67;;;;;;;17.64;86.46;100234.25;5093291;28;20526;-82
2022/07/14 01:19:07;;;;;;;4.47;2.85;;;;;;;17.65;86.54;100231.00;5094505;28;20070;-82
2022/07/14 01:21:32;;;;;;;3.20;2.70;;;;;;;17.52;89.04;100222.03;5090735;28;20598;-82
2022/07/14 01:23:58;;;;;;;3.50;2.75;;;;;;;17.43;90.17;100218.53;5074908;28;20123;-82
2022/07/14 01:26:24;;;;;;;5.82;2.92;;;;;;;17.49;89.17;100225.78;5094016;28;20036;-82
2022/07/14 01:28:49;;;;;;;3.53;2.67;;;;;;;17.41;90.92;100230.22;5112163;28;20046;-82
2022/07/14 01:31:15;;;;;;;4.70;2.53;;;;;;;17.50;89.30;100227.34;5110659;28;20035;-82
2022/07/14 01:33:40;;;;;;;4.90;2.72;;;;;;;17.57;88.44;100220.59;5111503;28;20032;-82
2022/07/14 01:36:06;;;;;;;3.40;2.70;;;;;;;17.63;87.50;100229.94;5091945;28;20039;-82
2022/07/14 01:38:32;;;;;;;2.92;2.60;;;;;;;17.63;87.12;100225.06;5054487;28;20068;-81
2022/07/14 01:40:57;;;;;;;4.22;2.90;;;;;;;17.59;87.10;100218.88;5076529;28;20051;-80
2022/07/14 01:43:23;;;;;;;3.88;2.88;;;;;;;17.35;89.77;100201.28;5077717;28;20039;-80
2022/07/14 01:45:49;;;;;;;3.17;2.88;;;;;;;17.45;87.25;100224.44;5093147;28;20142;-81
2022/07/14 01:48:15;;;;;;;3.45;2.90;;;;;;;17.41;89.36;100221.81;5094032;28;20040;-80
2022/07/14 01:50:41;;;;;;;5.18;2.80;;;;;;;17.39;89.65;100227.09;5076994;28;20059;-80
2022/07/14 01:53:06;;;;;;;5.57;2.90;;;;;;;17.32;89.56;100227.47;5091523;28;20035;-81
2022/07/14 01:55:34;;;;;;;4.25;2.78;;;;;;;17.31;89.52;100225.91;5094261;28;20044;-82
2022/07/14 01:57:59;;;;;;;4.25;3.00;;;;;;;17.28;90.02;100226.88;5092873;28;20377;-80
2022/07/14 02:00:25;;;;;;;3.60;2.72;;;;;;;17.22;91.07;100226.00;5075662;28;20039;-80
2022/07/14 02:02:58;;;;;;;6.32;3.13;;;;;;;17.19;92.44;100218.53;5070110;28;20048;-80
2022/07/14 02:05:27;;;;;;;4.35;2.72;;;;;;;17.09;92.66;100215.03;5090529;28;20032;-80
2022/07/14 02:07:53;;;;;;;4.20;3.00;;;;;;;17.09;91.87;100214.25;5091032;28;20074;-80
2022/07/14 02:13:14;;;;;;;4.13;2.83;;;;;;;17.07;90.88;100223.13;5092572;28;20048;-80
2022/07/14 02:15:39;;;;;;;3.45;2.90;;;;;;;17.05;90.96;100216.47;5092749;28;20031;-82
2022/07/14 02:18:06;;;;;;;4.53;2.88;;;;;;;16.98;92.73;100219.63;5091808;28;20032;-82
2022/07/14 02:20:31;;;;;;;4.53;2.80;;;;;;;16.93;93.32;100226.66;5075558;28;20094;-82
2022/07/14 02:22:57;;;;;;;4.22;3.10;;;;;;;16.86;94.71;100224.22;5092797;28;20065;-82
2022/07/14 02:25:23;;;;;;;3.78;2.88;;;;;;;16.78;95.19;100220.97;5093368;28;20500;-82
2022/07/14 02:27:49;;;;;;;3.78;2.85;;;;;;;16.75;94.73;100216.31;5073414;28;20042;-82
2022/07/14 02:30:14;;;;;;;4.03;3.00;;;;;;;16.74;94.57;100223.16;5057300;28;20055;-82
2022/07/14 02:32:41;;;;;;;4.85;2.95;;;;;;;16.70;94.22;100214.16;5074171;28;20051;-82
2022/07/14 02:35:07;;;;;;;3.00;2.60;;;;;;;16.73;94.54;100209.66;5091172;28;20078;-80
2022/07/14 02:37:32;;;;;;;5.93;3.00;;;;;;;16.66;95.76;100215.63;5091592;28;20048;-82
2022/07/14 02:39:59;;;;;;;3.45;2.97;;;;;;;16.66;95.39;100210.75;5091331;28;20023;-82
2022/07/14 02:42:24;;;;;;;5.32;3.00;;;;;;;16.66;96.21;100210.75;5076927;28;20036;-82
2022/07/14 02:44:51;;;;;;;4.80;3.22;;;;;;;16.64;95.07;100204.88;5060772;28;20040;-82
2022/07/14 02:47:16;;;;;;;3.30;2.83;;;;;;;16.66;93.43;100205.16;5112127;28;20093;-82
2022/07/14 02:49:42;;;;;;;4.95;3.25;;;;;;;16.54;95.42;100203.31;5093452;28;20465;-82
2022/07/14 02:52:07;;;;;;;5.70;3.20;;;;;;;16.48;95.98;100199.63;5111977;28;20040;-82
2022/07/14 02:54:34;;;;;;;4.07;3.25;;;;;;;16.51;95.51;100201.47;5093963;28;20113;-82
2022/07/14 02:57:00;;;;;;;3.92;3.05;;;;;;;16.50;95.97;100208.31;5093523;28;20042;-82
2022/07/14 02:59:26;;;;;;;3.90;2.72;;;;;;;16.53;94.29;100213.00;5093811;28;20122;-82
2022/07/14 03:01:51;;;;;;;5.40;2.90;;;;;;;16.56;94.73;100205.66;5076787;28;20040;-82
2022/07/14 03:04:20;;;;;;;3.22;2.80;;;;;;;16.64;94.60;100218.09;5110991;28;20124;-82
2022/07/14 03:06:47;;;;;;;5.25;2.95;;;;;;;16.67;94.26;100212.31;5093580;28;20036;-82
2022/07/14 03:09:16;;;;;;;5.05;3.15;;;;;;;16.63;94.64;100213.75;5093284;28;20028;-82
2022/07/14 03:11:42;;;;;;;4.45;3.13;;;;;;;16.64;93.63;100218.88;5076569;28;20028;-81
2022/07/14 03:14:09;;;;;;;4.30;2.88;;;;;;;16.62;93.35;100218.56;5092927;28;20048;-82
2022/07/14 03:16:35;;;;;;;4.25;3.00;;;;;;;16.61;93.12;100217.03;5093299;28;20050;-82
2022/07/14 03:19:06;;;;;;;6.05;3.10;;;;;;;16.55;96.92;100216.09;5077176;28;20499;-82
2022/07/14 03:21:32;;;;;;;5.25;3.45;;;;;;;16.48;96.94;100216.44;5075149;28;20128;-82
2022/07/14 03:23:58;;;;;;;5.22;3.20;;;;;;;16.43;98.46;100219.88;5092594;28;20047;-82
2022/07/14 03:26:29;;;;;;;4.25;2.90;;;;;;;16.42;98.16;100212.72;5093148;28;20047;-82
2022/07/14 03:28:55;;;;;;;4.13;2.80;;;;;;;16.46;97.23;100221.72;5093205;28;20050;-82
2022/07/14 03:31:22;;;;;;;6.30;3.22;;;;;;;16.36;98.84;100213.84;5073760;28;20040;-82
2022/07/14 03:33:48;;;;;;;4.30;2.95;;;;;;;16.33;98.70;100224.75;5075645;28;20827;-82
2022/07/14 03:36:16;;;;;;;4.32;2.90;;;;;;;16.34;98.37;100220.69;5076181;28;20035;-82
2022/07/14 03:38:42;;;;;;;3.78;3.40;;;;;;;16.38;97.42;100216.97;5075531;28;20396;-81
2022/07/14 03:41:09;;;;;;;3.92;3.00;;;;;;;16.38;97.29;100228.16;5072278;28;20239;-82
2022/07/14 03:43:37;;;;;;;3.83;3.25;;;;;;;16.39;98.51;100230.47;5068279;28;20055;-81
2022/07/14 03:46:03;;;;;;;4.15;3.00;;;;;;;16.40;99.23;100226.41;5085477;28;20039;-82
2022/07/14 03:48:29;;;;;;;4.35;2.88;;;;;;;16.40;98.72;100226.41;5092043;28;20038;-82
2022/07/14 03:51:00;;;;;;;8.90;3.58;;;;;;;16.40;100.00;100218.03;5091585;28;20040;-82
2022/07/14 03:53:26;;;;;;;5.85;3.50;;;;;;;16.43;100.00;100227.50;5072171;28;20036;-86
2022/07/14 03:55:52;;;;;;;7.03;3.42;;;;;;;16.50;100.00;100225.13;5058854;28;20122;-83
2022/07/14 03:58:17;;;;;;;5.15;3.50;;;;;;;16.53;100.00;100224.19;5075417;28;20201;-83
2022/07/14 04:00:43;;;;;;;5.28;3.40;;;;;;;16.55;99.47;100220.91;5083266;28;20043;-83
2022/07/14 04:03:09;;;;;;;5.78;3.25;;;;;;;16.64;98.73;100216.06;5090683;28;20127;-83
2022/07/14 04:05:35;;;;;;;4.63;3.00;;;;;;;16.76;97.46;100219.91;5071486;28;20044;-83
2022/07/14 04:08:08;;;;;;;5.90;3.30;;;;;;;16.83;97.03;100213.16;5086345;28;20501;-81
2022/07/14 04:10:47;;;;;;;5.85;3.20;;;;;;;16.87;96.96;100227.78;5077649;28;20048;-81
2022/07/14 04:13:14;;;;;;;4.93;3.30;;;;;;;16.83;98.08;100227.94;5054027;28;20361;-81
2022/07/14 04:15:40;;;;;;;8.00;3.50;;;;;;;16.79;98.63;100233.72;5074623;28;20500;-81
2022/07/14 04:18:05;;;;;;;8.07;3.58;;;;;;;16.90;97.73;100238.06;5057918;28;20189;-82
2022/07/14 04:20:31;;;;;;;4.22;3.30;;;;;;;16.97;96.97;100234.88;5092387;28;20500;-82
2022/07/14 04:22:58;;;;;;;4.90;3.45;;;;;;;17.05;96.02;100236.09;5063054;28;20044;-82
2022/07/14 04:25:23;;;;;;;3.50;3.20;;;;;;;17.10;94.30;100233.41;5071858;28;20044;-82
2022/07/14 04:27:49;;;;;;;4.20;3.58;;;;;;;17.15;94.74;100234.75;5071130;28;20051;-82
2022/07/14 04:30:15;;;;;;;6.55;3.22;;;;;;;17.19;94.76;100218.53;5079087;28;20397;-83
2022/07/14 04:32:42;;;;;;;6.80;4.20;;;;;;;17.19;95.54;100213.72;5058703;28;20056;-83
2022/07/14 04:35:12;;;;;;;6.85;4.85;;;;;;;17.25;96.36;100217.41;5075854;28;20054;-83
2022/07/14 04:37:38;;;;;;;9.18;4.70;;;;;;;17.34;96.43;100219.38;5072672;28;20040;-83
2022/07/14 04:40:11;;;;;;;10.85;5.07;;;;;;;17.40;96.32;100217.44;5098368;28;20446;-83
2022/07/14 04:42:37;;;;;;;6.20;4.28;;;;;;;17.43;95.85;100216.47;5071947;28;20048;-83
2022/07/14 04:45:03;;;;;;;8.48;4.35;;;;;;;17.50;95.10;100218.94;5056453;28;20594;-83
2022/07/14 04:47:29;;;;;;;6.40;4.00;;;;;;;17.52;94.63;100213.59;5070470;28;20040;-83
2022/07/14 04:52:47;;;;;;;10.52;4.10;;;;;;;17.61;95.00;100221.97;5074406;28;20253;-82
2022/07/14 04:55:42;;;;;;;4.90;3.58;;;;;;;17.73;94.33;100227.78;5068743;28;20435;-84
2022/07/14 04:58:31;;;;;;;7.45;3.75;;;;;;;17.82;94.00;100230.53;5061826;28;20040;-82
2022/07/14 05:00:59;;;;;;;6.93;3.83;;;;;;;17.87;93.64;100227.06;5064836;28;20043;-82
2022/07/14 05:03:28;;;;;;;6.55;3.70;;;;;;;17.99;92.78;100226.78;5074452;28;20162;-82
2022/07/14 05:05:53;;;;;;;5.65;3.88;;;;;;;18.08;92.24;100231.50;5074380;28;20100;-82
2022/07/14 05:08:19;;;;;;;5.95;3.78;;;;;;;18.22;91.88;100224.34;5058056;28;20476;-82
2022/07/14 05:10:48;;;;;;;4.63;4.15;;;;;;;18.31;90.48;100227.84;5055116;28;20048;-81
2022/07/14 05:13:14;;;;;;;5.78;3.60;;;;;;;18.61;89.54;100229.34;5060405;28;20081;-81
2022/07/14 05:15:39;;;;;;;4.80;3.30;;;;;;;18.75;86.71;100221.38;5071703;28;20117;-81
2022/07/14 05:18:05;;;;;;;5.55;3.30;;;;;;;19.03;85.54;100230.97;5076581;28;20151;-82
2022/07/14 05:20:31;;;;;;;5.60;3.38;;;;;;;19.13;84.87;100229.56;5056481;28;20013;-81
2022/07/14 05:22:56;;;;;;;4.75;3.42;;;;;;;19.27;83.55;100223.13;5092802;28;20036;-81
2022/07/14 05:25:22;;;;;;;5.90;3.47;;;;;;;19.55;81.38;100227.06;5092953;28;20400;-88
2022/07/14 05:27:48;;;;;;;6.68;3.63;;;;;;;19.62;81.56;100213.81;5111255;28;20078;-87
2022/07/14 05:30:33;;;;;;;5.15;3.22;;;;;;;19.80;81.52;100225.53;5111845;28;20036;-87
2022/07/14 05:33:00;;;;;;;5.57;3.42;;;;;;;19.92;80.68;100223.59;5093563;28;20130;-87
2022/07/14 05:35:27;;;;;;;4.13;3.13;;;;;;;20.09;80.75;100213.28;5076686;28;20561;-87
2022/07/14 05:37:55;;;;;;;5.18;2.95;;;;;;;20.30;80.44;100211.19;5090609;28;20081;-86
2022/07/14 05:40:21;;;;;;;4.15;3.15;;;;;;;20.47;79.44;100207.22;5084245;28;20060;-86
2022/07/14 05:42:47;;;;;;;5.13;3.10;;;;;;;20.80;78.61;100203.06;5048207;28;20047;-87
2022/07/14 05:45:19;;;;;;;6.43;3.00;;;;;;;21.14;77.53;100210.47;5066205;28;20081;-81
2022/07/14 05:47:49;;;;;;;6.55;3.17;;;;;;;21.39;76.96;100198.25;5081760;28;20476;-87
2022/07/14 05:50:22;;;;;;;5.43;2.90;;;;;;;21.61;72.21;100191.91;5067329;28;20051;-86
2022/07/14 05:52:48;;;;;;;4.53;2.92;;;;;;;21.94;69.29;100196.88;5080314;28;20584;-87
2022/07/14 05:55:14;;;;;;;3.38;2.65;;;;;;;22.13;69.90;100208.44;5063314;28;20145;-87
2022/07/14 05:57:41;;;;;;;4.60;2.90;;;;;;;22.31;69.10;100214.38;5047280;28;20050;-87
2022/07/14 06:00:08;;;;;;;4.72;3.03;;;;;;;22.57;67.48;100216.13;5096206;27;20034;-87
2022/07/14 06:02:40;;;;;;;5.50;3.03;;;;;;;22.68;65.54;100213.31;5097525;28;22078;-82
2022/07/14 06:05:11;;;;;;;4.88;3.00;;;;;;;22.83;65.38;100213.81;5082426;27;20043;-82
2022/07/14 06:07:38;;;;;;;5.13;2.65;;;;;;;22.88;64.94;100220.75;5094730;27;20882;-82
2022/07/14 06:10:05;;;;;;;6.55;2.60;;;;;;;23.13;64.58;100226.06;5073185;28;20528;-81
2022/07/14 06:12:37;;;;;;;4.78;3.25;;;;;;;23.16;64.94;100227.88;5068562;28;20035;-81
2022/07/14 06:15:07;;;;;;;3.92;2.95;;;;;;;23.02;64.63;100214.00;5070062;28;20051;-82
2022/07/14 06:17:34;;;;;;;5.78;3.10;;;;;;;22.87;66.07;100216.38;5039168;28;20044;-82
2022/07/14 06:20:07;;;;;;;4.75;2.92;;;;;;;23.19;64.65;100206.25;5055492;28;20052;-82
2022/07/14 06:22:35;;;;;;;4.20;2.78;;;;;;;23.43;65.27;100202.81;5058640;28;20120;-81
2022/07/14 06:25:01;;;;;;;4.78;3.00;;;;;;;23.80;64.59;100202.34;5056939;28;20039;-86
2022/07/14 06:27:27;;;;;;;4.45;3.20;;;;;;;24.28;62.35;100201.78;5078749;28;20594;-87
2022/07/14 06:29:54;;;;;;;4.15;3.25;;;;;;;24.64;62.63;100206.06;5077195;28;20132;-87
2022/07/14 06:32:20;;;;;;;4.72;3.70;;;;;;;24.32;63.22;100207.91;5075861;28;20113;-86
2022/07/14 06:34:48;;;;;;;4.13;3.00;;;;;;;24.88;61.14;100203.28;5048713;28;20036;-87
2022/07/14 06:37:23;;;;;;;5.80;3.35;;;;;;;25.27;58.37;100205.69;5059187;28;20373;-87
2022/07/14 06:39:50;;;;;;;5.97;3.10;;;;;;;25.45;58.21;100204.13;5073680;28;20492;-87
2022/07/14 06:42:16;;;;;;;4.95;3.38;;;;;;;25.58;58.44;100217.69;5059068;28;20040;-81
2022/07/14 06:45:02;;;;;;;9.40;3.35;;;;;;;25.67;57.91;100214.47;5079878;28;20038;-82
2022/07/14 06:47:30;;;;;;;5.00;3.10;;;;;;;25.43;58.75;100206.75;5040441;28;20131;-82
2022/07/14 06:49:58;;;;;;;6.13;3.38;;;;;;;25.52;59.44;100197.84;5090473;28;20036;-81
2022/07/14 06:52:24;;;;;;;6.97;3.53;;;;;;;25.73;58.24;100201.72;5057058;28;20032;-81
2022/07/14 06:54:53;;;;;;;6.70;3.03;;;;;;;25.93;58.39;100192.63;5090038;28;20101;-80
2022/07/14 06:57:19;;;;;;;7.90;3.25;;;;;;;26.13;58.56;100193.34;5093795;28;20047;-80
2022/07/14 06:59:45;;;;;;;6.35;3.42;;;;;;;25.62;60.40;100196.19;5111720;28;20134;-81
2022/07/14 07:02:10;;;;;;;5.40;3.30;;;;;;;25.51;60.23;100207.69;5076539;28;20044;-81
2022/07/14 07:04:36;;;;;;;5.68;3.35;;;;;;;25.82;60.83;100204.16;5061045;28;20089;-81
2022/07/14 07:07:01;;;;;;;4.40;3.40;;;;;;;25.75;61.42;100204.78;5111777;28;20048;-81
2022/07/14 07:09:27;;;;;;;5.18;3.55;;;;;;;25.78;62.59;100206.56;5076724;28;20039;-81
2022/07/14 07:11:53;;;;;;;5.97;3.97;;;;;;;25.99;59.66;100201.84;5093818;28;20035;-81
2022/07/14 07:14:19;;;;;;;5.95;3.80;;;;;;;26.05;57.83;100193.22;5059763;28;20508;-81
2022/07/14 07:16:45;;;;;;;4.50;3.60;;;;;;;26.20;58.24;100196.38;5093748;28;20067;-80
2022/07/14 07:19:11;;;;;;;4.18;3.30;;;;;;;26.70;56.83;100189.78;5059306;28;20036;-81
2022/07/14 07:21:37;;;;;;;7.13;3.30;;;;;;;26.85;55.45;100190.03;5076130;28;20051;-86
2022/07/14 07:24:03;;;;;;;4.80;3.53;;;;;;;26.57;55.52;100186.19;5076294;28;20035;-87
2022/07/14 07:26:33;;;;;;;5.60;3.72;;;;;;;26.83;54.58;100172.75;5083553;28;20616;-86
2022/07/14 07:28:59;;;;;;;5.45;3.58;;;;;;;27.15;54.01;100169.03;5066727;28;20040;-86
2022/07/14 07:31:25;;;;;;;6.88;3.63;;;;;;;27.02;56.16;100163.34;5064388;28;20670;-87
2022/07/14 07:33:51;;;;;;;6.60;3.30;;;;;;;27.66;54.17;100178.78;5057162;28;20039;-87
2022/07/14 07:36:17;;;;;;;4.80;3.40;;;;;;;27.69;54.28;100179.78;5063902;28;20101;-85
2022/07/14 07:38:42;;;;;;;5.20;3.63;;;;;;;27.42;57.62;100173.34;5072798;28;20050;-86
2022/07/14 07:41:08;;;;;;;4.50;3.40;;;;;;;27.75;55.47;100178.34;5055671;28;20134;-82
2022/07/14 07:43:34;;;;;;;5.50;3.20;;;;;;;27.97;54.18;100179.13;5099507;28;20036;-81
2022/07/14 07:46:00;;;;;;;6.60;3.35;;;;;;;27.75;54.70;100181.19;5072853;28;20051;-81
2022/07/14 07:48:25;;;;;;;7.13;3.20;;;;;;;28.01;54.04;100173.84;5075599;28;20039;-82
2022/07/14 07:50:51;;;;;;;5.53;3.20;;;;;;;28.17;52.40;100178.41;5072713;28;20101;-81
2022/07/14 07:53:16;;;;;;;5.53;3.35;;;;;;;28.33;52.49;100180.06;5078741;28;20043;-81
2022/07/14 07:55:42;;;;;;;6.38;3.40;;;;;;;28.36;53.00;100178.19;5078515;28;20028;-81
2022/07/14 07:58:08;;;;;;;5.22;3.58;;;;;;;28.54;51.57;100177.97;5076999;28;20113;-87
2022/07/14 08:00:34;;;;;;;5.20;3.60;;;;;;;28.71;51.68;100174.69;5047339;28;20081;-82
2022/07/14 08:03:01;;;;;;;6.25;3.53;;;;;;;28.96;53.45;100177.88;5064471;28;20056;-81
2022/07/14 08:05:28;;;;;;;4.93;3.50;;;;;;;29.47;48.34;100175.13;5069759;28;20043;-82
2022/07/14 08:07:53;;;;;;;4.55;3.28;;;;;;;29.77;48.19;100171.56;5084088;28;20050;-83
2022/07/14 08:10:19;;;;;;;4.85;3.45;;;;;;;28.68;51.13;100187.94;5104629;28;20040;-82
2022/07/14 08:12:45;;;;;;;7.57;3.63;;;;;;;29.16;50.62;100183.50;5072514;28;20499;-82
2022/07/14 08:15:12;;;;;;;5.43;3.60;;;;;;;29.48;49.38;100180.25;5090406;28;20039;-82
2022/07/14 08:17:38;;;;;;;7.28;3.88;;;;;;;29.76;47.93;100179.41;5065344;28;20147;-86
2022/07/14 08:20:06;;;;;;;7.82;3.65;;;;;;;30.20;47.86;100176.47;5068075;28;20036;-83
2022/07/14 08:22:31;;;;;;;6.63;3.40;;;;;;;30.79;45.38;100171.28;5056146;28;20063;-83
2022/07/14 08:24:57;;;;;;;5.43;3.30;;;;;;;30.92;46.29;100169.00;5081024;28;20485;-82
2022/07/14 08:27:23;;;;;;;4.82;3.30;;;;;;;30.07;46.96;100160.22;5070974;28;20036;-82
2022/07/14 08:29:49;;;;;;;4.70;3.63;;;;;;;30.36;47.82;100167.31;5091082;28;20422;-82
2022/07/14 08:32:15;;;;;;;4.88;3.20;;;;;;;30.47;47.27;100161.22;5089717;28;20035;-82
2022/07/14 08:34:41;;;;;;;5.72;3.38;;;;;;;30.57;48.84;100146.34;5092745;28;20040;-82
2022/07/14 08:37:06;;;;;;;3.92;3.10;;;;;;;30.42;48.47;100159.28;5093580;28;20039;-82
2022/07/14 08:39:32;;;;;;;4.25;3.08;;;;;;;30.25;50.55;100156.22;5077759;28;20127;-82
2022/07/14 08:42:01;;;;;;;4.00;2.83;;;;;;;30.66;50.56;100160.03;5077286;28;20044;-82
2022/07/14 08:44:27;;;;;;;5.28;3.58;;;;;;;30.50;52.18;100147.84;5077812;28;20556;-82
2022/07/14 08:46:53;;;;;;;3.30;3.00;;;;;;;29.99;53.37;100156.59;5077466;28;20040;-83
2022/07/14 08:49:19;;;;;;;5.53;3.40;;;;;;;30.30;51.61;100149.56;5069451;28;20051;-82
2022/07/14 08:51:45;;;;;;;5.57;3.20;;;;;;;30.59;51.57;100149.38;5094875;28;20042;-82
2022/07/14 08:54:11;;;;;;;5.05;3.45;;;;;;;30.85;49.40;100154.69;5077218;28;20078;-82
2022/07/14 08:56:37;;;;;;;5.72;3.03;;;;;;;31.24;47.20;100156.13;5113174;28;20088;-83
2022/07/14 08:59:03;;;;;;;3.92;3.13;;;;;;;31.75;46.58;100139.25;5114273;28;20385;-82
2022/07/14 09:01:29;;;;;;;6.72;2.80;;;;;;;32.06;46.40;100142.69;5113710;28;20046;-82
2022/07/14 09:03:55;;;;;;;4.40;3.05;;;;;;;31.45;45.49;100142.28;5113141;28;20044;-81
2022/07/14 09:06:52;;;;;;;5.60;3.10;;;;;;;31.73;46.13;100141.19;5095594;28;20432;-83
2022/07/14 09:09:24;;;;;;;5.75;3.17;;;;;;;31.80;44.76;100137.50;5095391;28;20040;-82
2022/07/14 09:12:07;;;;;;;4.47;3.30;;;;;;;31.47;46.28;100140.34;5075254;28;20051;-82
2022/07/14 09:17:27;;;;;;;3.38;3.03;;;;;;;30.63;48.20;100135.44;5075145;28;20054;-88
2022/07/14 09:20:09;;;;;;;5.72;3.03;;;;;;;30.99;47.47;100136.72;5042699;28;20519;-88
2022/07/14 09:22:42;;;;;;;6.13;3.30;;;;;;;30.87;49.19;100137.69;5093573;28;20048;-86
2022/07/14 09:25:15;;;;;;;4.25;2.85;;;;;;;30.87;48.02;100144.16;5058540;28;20294;-87
2022/07/14 09:27:41;;;;;;;5.40;2.67;;;;;;;30.99;44.73;100124.50;5082228;28;20522;-87
2022/07/14 09:30:10;;;;;;;5.90;2.80;;;;;;;31.43;45.00;100122.78;5095501;28;20040;-87
2022/07/14 09:32:57;;;;;;;5.07;2.67;;;;;;;31.81;44.01;100122.59;5077614;28;20407;-87
2022/07/14 09:35:33;;;;;;;2.88;2.50;;;;;;;31.61;42.12;100123.66;5081615;28;20046;-82
2022/07/14 09:37:58;;;;;;;5.95;2.70;;;;;;;31.61;42.31;100114.31;5091476;28;20044;-83
2022/07/14 09:40:29;;;;;;;3.88;2.50;;;;;;;32.51;40.46;100120.69;5065006;28;20428;-83
2022/07/14 09:42:58;;;;;;;4.78;2.50;;;;;;;32.21;41.42;100113.13;5065718;28;20145;-81
2022/07/14 09:45:38;;;;;;;5.03;2.90;;;;;;;31.87;40.47;100119.47;5074462;28;20412;-83
2022/07/14 09:48:12;;;;;;;4.63;2.70;;;;;;;31.74;40.72;100111.94;5058328;28;20040;-82
2022/07/14 09:50:40;;;;;;;4.13;2.30;;;;;;;31.16;42.04;100110.31;5041258;28;20040;-82
2022/07/14 09:53:22;;;;;;;3.33;2.40;;;;;;;31.29;41.54;100112.16;5066710;28;20055;-88
2022/07/14 09:55:52;;;;;;;3.15;2.20;;;;;;;31.91;40.74;100099.75;5094842;28;20055;-88
2022/07/14 09:58:20;;;;;;;4.25;2.60;;;;;;;32.09;42.11;100095.63;5094629;28;20468;-88
2022/07/14 10:01:06;;;;;;;3.63;2.67;;;;;;;32.11;41.74;100104.38;5077628;28;20370;-88
2022/07/14 10:03:33;;;;;;;6.78;2.70;;;;;;;31.63;41.00;100106.63;5112723;28;20558;-88
2022/07/14 10:06:01;;;;;;;4.82;2.55;;;;;;;32.01;41.26;100100.63;5094866;28;20044;-88
2022/07/14 10:08:31;;;;;;;4.35;2.60;;;;;;;31.76;41.00;100088.38;5082074;28;20129;-87
2022/07/14 10:10:58;;;;;;;4.95;2.55;;;;;;;31.43;41.13;100094.13;5068983;28;20493;-83
2022/07/14 10:13:24;;;;;;;3.20;2.65;;;;;;;31.45;40.86;100091.44;5092983;28;20028;-85
2022/07/14 10:15:52;;;;;;;3.85;2.55;;;;;;;32.09;40.81;100089.88;5094083;28;20506;-86
2022/07/14 10:18:18;;;;;;;3.38;2.40;;;;;;;32.38;40.32;100085.22;5077379;28;20044;-87
2022/07/14 10:20:48;;;;;;;2.53;2.33;;;;;;;32.56;38.54;100082.34;5094613;28;20059;-88
2022/07/14 10:23:14;;;;;;;5.57;2.10;;;;;;;32.91;35.39;100086.03;5053079;28;20568;-88
2022/07/14 10:25:41;;;;;;;3.00;2.53;;;;;;;31.86;36.32;100083.56;5064286;28;20369;-85
2022/07/14 10:28:07;;;;;;;4.20;2.00;;;;;;;32.06;32.42;100079.56;5108628;28;20127;-86
2022/07/14 10:30:54;;;;;;;2.28;1.95;;;;;;;31.67;34.95;100086.16;5088471;28;20119;-87
2022/07/14 10:33:31;;;;;;;3.10;2.30;;;;;;;32.41;34.08;100079.63;5090000;28;20058;-86
2022/07/14 10:36:08;;;;;;;3.25;2.30;;;;;;;32.44;32.52;100078.44;5110522;28;20543;-87
2022/07/14 10:38:46;;;;;;;3.38;2.10;;;;;;;32.79;32.86;100074.28;5074588;28;20039;-88
2022/07/14 10:41:36;;;;;;;2.40;2.00;;;;;;;33.04;33.34;100062.69;5089698;28;20052;-86
2022/07/14 10:44:16;;;;;;;3.40;2.13;;;;;;;32.76;32.49;100066.84;5091963;28;20089;-89
2022/07/14 10:46:46;;;;;;;4.28;2.22;;;;;;;33.42;32.90;100059.31;5074938;28;20500;-86
2022/07/14 10:49:13;;;;;;;2.95;2.10;;;;;;;33.32;31.48;100059.28;5076017;28;20051;-86
2022/07/14 10:51:50;;;;;;;3.45;2.20;;;;;;;33.63;32.66;100063.22;5091838;28;20377;-87
2022/07/14 10:54:32;;;;;;;3.85;2.25;;;;;;;33.41;31.24;100057.78;5075355;28;20051;-86
2022/07/14 10:57:17;;;;;;;2.28;2.08;;;;;;;33.99;30.52;100053.81;5091746;28;20104;-86
2022/07/14 10:59:44;;;;;;;5.55;2.50;;;;;;;33.62;32.96;100052.28;5064521;28;20051;-87
2022/07/14 11:02:13;;;;;;;3.60;2.10;;;;;;;34.08;32.60;100044.47;5083070;28;20067;-87
2022/07/14 11:04:57;;;;;;;3.78;2.17;;;;;;;34.12;33.05;100053.41;5091012;28;20116;-86
2022/07/14 11:07:35;;;;;;;2.88;2.25;;;;;;;34.65;31.78;100043.09;5109898;28;20075;-86
2022/07/14 11:10:04;;;;;;;3.55;2.20;;;;;;;34.36;31.17;100036.50;5074269;28;20054;-85
2022/07/14 11:12:30;;;;;;;5.00;2.25;;;;;;;34.39;32.23;100044.69;5074171;28;20489;-85
2022/07/14 11:14:56;;;;;;;4.68;2.20;;;;;;;34.01;31.42;100041.72;5054676;28;20047;-87
2022/07/14 11:17:35;;;;;;;3.00;2.35;;;;;;;34.01;32.88;100045.34;5057549;28;20046;-87
2022/07/14 11:20:00;;;;;;;3.92;2.50;;;;;;;34.02;33.48;100046.09;5073673;28;20075;-87
2022/07/14 11:22:26;;;;;;;4.35;2.28;;;;;;;34.55;31.31;100039.41;5074159;28;20074;-86
2022/07/14 11:24:53;;;;;;;4.15;1.90;;;;;;;34.27;29.48;100038.00;5057787;28;20040;-86
2022/07/14 11:27:35;;;;;;;2.90;2.03;;;;;;;33.66;29.18;100038.25;5091671;28;20071;-86
2022/07/14 11:30:21;;;;;;;4.47;1.95;;;;;;;34.37;27.93;100032.28;5091321;28;20048;-86
2022/07/14 11:32:57;;;;;;;5.45;2.15;;;;;;;34.26;28.10;100030.72;5091505;28;20054;-86
2022/07/14 11:38:34;;;;;;;2.45;2.10;;;;;;;34.39;29.05;100009.38;5082734;28;20039;-88
2022/07/14 11:41:02;;;;;;;2.50;2.28;;;;;;;34.54;28.37;100017.72;5063375;28;20509;-87